As Suwayq — V7XU8 — position and weather

sailwx.info

Track history (hours):
 
Tides and Currents Weather Stations Pressure Air Temp Water Temp Dewpoint Dewpoint Depression Visibility Wind Speed Wind Dir Waves Ship Positions

As Suwayq

Last reported at 2015-Mar-24 00:03 UTC. Time now 2015-Mar-28 22:20 UTC.
Position S 33°50' E 027°31'.

Length 333 m; draft 21.4 m.

Type: Tanker. MMSI: 538004576.

Date/timePositionNaut miles runAvg speedWind from/ knotsBaromVisibWave heightAir tempDewpointWater temp
2015-Mar-24 00:03S 33°50' E 027°31'815.2
2015-Mar-23 23:32S 33°44' E 027°38'27714.6
2015-Mar-23 04:32S 30°23' E 031°22'1413.9
2015-Mar-23 03:33S 30°12' E 031°31'1413.8
2015-Mar-23 02:33S 30°01' E 031°40'1413.8
2015-Mar-23 01:33S 29°49' E 031°49'1413.8
2015-Mar-23 00:33S 29°38' E 031°58'1413.5
2015-Mar-22 23:33S 29°27' E 032°08'1313.2
2015-Mar-22 22:33S 29°17' E 032°16'1513.3
2015-Mar-22 21:28S 29°05' E 032°26'  
Track history (hours):
 
Tides and Currents Weather Stations Pressure Air Temp Water Temp Dewpoint Dewpoint Depression Visibility Wind Speed Wind Dir Waves Ship Positions

As Suwayq

Last reported at 2015-Mar-24 00:03 UTC. Time now 2015-Mar-28 22:20 UTC.
Position S 33°50' E 027°31'.

Length 333 m; draft 21.4 m.

Type: Tanker. MMSI: 538004576.

Date/timePositionNaut miles runAvg speedWind from/ knotsBaromVisibWave heightAir tempDewpointWater temp
2015-Mar-24 00:03S 33°50' E 027°31'815.2
2015-Mar-23 23:32S 33°44' E 027°38'27714.6
2015-Mar-23 04:32S 30°23' E 031°22'1413.9
2015-Mar-23 03:33S 30°12' E 031°31'1413.8
2015-Mar-23 02:33S 30°01' E 031°40'1413.8
2015-Mar-23 01:33S 29°49' E 031°49'1413.8
2015-Mar-23 00:33S 29°38' E 031°58'1413.5
2015-Mar-22 23:33S 29°27' E 032°08'1313.2
2015-Mar-22 22:33S 29°17' E 032°16'1513.3
2015-Mar-22 21:28S 29°05' E 032°26'  

Dump ship's entire track history